sensor_id;sensor_type;location;lat;lon;timestamp;temperature;humidity
31387;DHT22;18017;50.124;8.688;2022-09-09T00:01:51;18.00;99.90
31387;DHT22;18017;50.124;8.688;2022-09-09T00:04:32;18.00;99.90
31387;DHT22;18017;50.124;8.688;2022-09-09T00:09:50;18.00;99.90
31387;DHT22;18017;50.124;8.688;2022-09-09T00:15:13;18.00;99.90
31387;DHT22;18017;50.124;8.688;2022-09-09T00:20:13;17.90;99.90
31387;DHT22;18017;50.124;8.688;2022-09-09T00:22:46;17.70;99.90
31387;DHT22;18017;50.124;8.688;2022-09-09T00:25:27;17.70;99.90
31387;DHT22;18017;50.124;8.688;2022-09-09T00:27:54;17.60;99.90
31387;DHT22;18017;50.124;8.688;2022-09-09T00:30:23;17.50;99.90
31387;DHT22;18017;50.124;8.688;2022-09-09T00:33:00;17.50;99.90
31387;DHT22;18017;50.124;8.688;2022-09-09T00:35:38;17.40;99.90
31387;DHT22;18017;50.124;8.688;2022-09-09T00:38:15;17.30;99.90
31387;DHT22;18017;50.124;8.688;2022-09-09T00:40:52;17.30;99.90
31387;DHT22;18017;50.124;8.688;2022-09-09T00:55:00;17.10;99.90
31387;DHT22;18017;50.124;8.688;2022-09-09T00:57:30;17.00;99.90
31387;DHT22;18017;50.124;8.688;2022-09-09T01:00:14;16.90;99.90
31387;DHT22;18017;50.124;8.688;2022-09-09T01:10:54;16.90;99.90
31387;DHT22;18017;50.124;8.688;2022-09-09T01:13:32;16.90;99.90
31387;DHT22;18017;50.124;8.688;2022-09-09T01:16:00;16.90;99.90
31387;DHT22;18017;50.124;8.688;2022-09-09T01:18:49;16.80;99.90
31387;DHT22;18017;50.124;8.688;2022-09-09T01:24:27;16.80;99.90
31387;DHT22;18017;50.124;8.688;2022-09-09T01:26:58;16.80;99.90
31387;DHT22;18017;50.124;8.688;2022-09-09T01:29:26;16.80;99.90
31387;DHT22;18017;50.124;8.688;2022-09-09T01:31:56;16.70;99.90
31387;DHT22;18017;50.124;8.688;2022-09-09T01:34:25;16.70;99.90
31387;DHT22;18017;50.124;8.688;2022-09-09T01:37:05;16.60;99.90
31387;DHT22;18017;50.124;8.688;2022-09-09T01:39:36;16.60;99.90
31387;DHT22;18017;50.124;8.688;2022-09-09T01:42:05;16.60;99.90
31387;DHT22;18017;50.124;8.688;2022-09-09T01:44:31;16.60;99.90
31387;DHT22;18017;50.124;8.688;2022-09-09T01:46:57;16.50;99.90
31387;DHT22;18017;50.124;8.688;2022-09-09T01:49:23;16.50;99.90
31387;DHT22;18017;50.124;8.688;2022-09-09T01:51:51;16.60;99.90
31387;DHT22;18017;50.124;8.688;2022-09-09T01:54:19;16.50;99.90
31387;DHT22;18017;50.124;8.688;2022-09-09T01:59:51;16.40;99.90
31387;DHT22;18017;50.124;8.688;2022-09-09T02:02:35;16.40;99.90
31387;DHT22;18017;50.124;8.688;2022-09-09T02:10:02;16.40;99.90
31387;DHT22;18017;50.124;8.688;2022-09-09T02:12:31;16.50;99.90
31387;DHT22;18017;50.124;8.688;2022-09-09T02:15:03;16.60;99.90
31387;DHT22;18017;50.124;8.688;2022-09-09T02:17:32;16.60;99.90
31387;DHT22;18017;50.124;8.688;2022-09-09T02:20:08;16.70;99.90
31387;DHT22;18017;50.124;8.688;2022-09-09T02:22:37;16.80;99.90
31387;DHT22;18017;50.124;8.688;2022-09-09T02:25:06;16.80;99.90
31387;DHT22;18017;50.124;8.688;2022-09-09T02:27:33;16.80;99.90
31387;DHT22;18017;50.124;8.688;2022-09-09T02:30:00;17.00;99.90
31387;DHT22;18017;50.124;8.688;2022-09-09T02:32:29;17.00;99.90
31387;DHT22;18017;50.124;8.688;2022-09-09T02:35:06;17.10;99.90
31387;DHT22;18017;50.124;8.688;2022-09-09T02:37:37;17.10;99.90
31387;DHT22;18017;50.124;8.688;2022-09-09T02:40:04;17.10;99.90
31387;DHT22;18017;50.124;8.688;2022-09-09T02:42:31;17.10;99.90
31387;DHT22;18017;50.124;8.688;2022-09-09T02:44:56;17.10;99.90
31387;DHT22;18017;50.124;8.688;2022-09-09T02:47:29;17.10;99.90
31387;DHT22;18017;50.124;8.688;2022-09-09T02:50:12;17.20;99.90
31387;DHT22;18017;50.124;8.688;2022-09-09T02:55:45;17.20;99.90
31387;DHT22;18017;50.124;8.688;2022-09-09T02:58:14;17.20;99.90
31387;DHT22;18017;50.124;8.688;2022-09-09T03:00:43;17.10;99.90
31387;DHT22;18017;50.124;8.688;2022-09-09T03:03:10;17.10;99.90
31387;DHT22;18017;50.124;8.688;2022-09-09T03:05:36;17.20;99.90
31387;DHT22;18017;50.124;8.688;2022-09-09T03:08:03;17.20;99.90
31387;DHT22;18017;50.124;8.688;2022-09-09T03:10:29;17.10;99.90
31387;DHT22;18017;50.124;8.688;2022-09-09T03:12:55;17.10;99.90
31387;DHT22;18017;50.124;8.688;2022-09-09T03:15:20;17.10;99.90
31387;DHT22;18017;50.124;8.688;2022-09-09T03:17:46;17.10;99.90
31387;DHT22;18017;50.124;8.688;2022-09-09T03:20:12;17.10;99.90
31387;DHT22;18017;50.124;8.688;2022-09-09T03:22:38;17.00;99.90
31387;DHT22;18017;50.124;8.688;2022-09-09T03:25:04;16.90;99.90
31387;DHT22;18017;50.124;8.688;2022-09-09T03:27:31;16.80;99.90
31387;DHT22;18017;50.124;8.688;2022-09-09T03:29:56;16.70;99.90
31387;DHT22;18017;50.124;8.688;2022-09-09T03:32:23;16.70;99.90
31387;DHT22;18017;50.124;8.688;2022-09-09T03:34:50;16.70;99.90
31387;DHT22;18017;50.124;8.688;2022-09-09T03:37:16;16.70;99.90
31387;DHT22;18017;50.124;8.688;2022-09-09T03:39:43;16.70;99.90
31387;DHT22;18017;50.124;8.688;2022-09-09T03:42:08;16.70;99.90
31387;DHT22;18017;50.124;8.688;2022-09-09T03:44:34;16.70;99.90
31387;DHT22;18017;50.124;8.688;2022-09-09T03:47:00;16.80;99.90
31387;DHT22;18017;50.124;8.688;2022-09-09T03:49:26;16.80;99.90
31387;DHT22;18017;50.124;8.688;2022-09-09T03:51:54;16.80;99.90
31387;DHT22;18017;50.124;8.688;2022-09-09T03:54:20;16.90;99.90
31387;DHT22;18017;50.124;8.688;2022-09-09T03:56:46;16.80;99.90
31387;DHT22;18017;50.124;8.688;2022-09-09T03:59:11;16.80;99.90
31387;DHT22;18017;50.124;8.688;2022-09-09T04:01:37;16.80;99.90
31387;DHT22;18017;50.124;8.688;2022-09-09T04:04:02;16.80;99.90
31387;DHT22;18017;50.124;8.688;2022-09-09T04:06:28;16.70;99.90
31387;DHT22;18017;50.124;8.688;2022-09-09T04:08:55;16.60;99.90
31387;DHT22;18017;50.124;8.688;2022-09-09T04:11:21;16.60;99.90
31387;DHT22;18017;50.124;8.688;2022-09-09T04:13:47;16.50;99.90
31387;DHT22;18017;50.124;8.688;2022-09-09T04:16:13;16.40;99.90
31387;DHT22;18017;50.124;8.688;2022-09-09T04:18:38;16.40;99.90
31387;DHT22;18017;50.124;8.688;2022-09-09T04:21:05;16.30;99.90
31387;DHT22;18017;50.124;8.688;2022-09-09T04:23:32;16.30;99.90
31387;DHT22;18017;50.124;8.688;2022-09-09T04:26:00;16.40;99.90
31387;DHT22;18017;50.124;8.688;2022-09-09T04:28:32;16.40;99.90
31387;DHT22;18017;50.124;8.688;2022-09-09T04:31:07;16.40;99.90
31387;DHT22;18017;50.124;8.688;2022-09-09T04:33:34;16.40;99.90
31387;DHT22;18017;50.124;8.688;2022-09-09T04:36:00;16.40;99.90
31387;DHT22;18017;50.124;8.688;2022-09-09T04:38:25;16.40;99.90
31387;DHT22;18017;50.124;8.688;2022-09-09T04:40:51;16.40;99.90
31387;DHT22;18017;50.124;8.688;2022-09-09T04:43:19;16.40;99.90
31387;DHT22;18017;50.124;8.688;2022-09-09T04:45:48;16.40;99.90
31387;DHT22;18017;50.124;8.688;2022-09-09T04:48:13;16.30;99.90
31387;DHT22;18017;50.124;8.688;2022-09-09T04:50:39;16.30;99.90
31387;DHT22;18017;50.124;8.688;2022-09-09T04:53:06;16.30;99.90
31387;DHT22;18017;50.124;8.688;2022-09-09T04:55:32;16.40;99.90
31387;DHT22;18017;50.124;8.688;2022-09-09T04:58:06;16.40;99.90
31387;DHT22;18017;50.124;8.688;2022-09-09T05:00:33;16.40;99.90
31387;DHT22;18017;50.124;8.688;2022-09-09T05:03:05;16.40;99.90
31387;DHT22;18017;50.124;8.688;2022-09-09T05:05:32;16.40;99.90
31387;DHT22;18017;50.124;8.688;2022-09-09T05:08:05;16.40;99.90
31387;DHT22;18017;50.124;8.688;2022-09-09T05:10:32;16.40;99.90
31387;DHT22;18017;50.124;8.688;2022-09-09T05:12:59;16.40;99.90
31387;DHT22;18017;50.124;8.688;2022-09-09T05:15:24;16.50;99.90
31387;DHT22;18017;50.124;8.688;2022-09-09T05:17:50;16.60;99.90
31387;DHT22;18017;50.124;8.688;2022-09-09T05:20:17;16.80;99.90
31387;DHT22;18017;50.124;8.688;2022-09-09T05:22:43;16.80;99.90
31387;DHT22;18017;50.124;8.688;2022-09-09T05:25:09;16.70;99.90
31387;DHT22;18017;50.124;8.688;2022-09-09T05:27:34;16.70;99.90
31387;DHT22;18017;50.124;8.688;2022-09-09T05:30:00;17.10;99.90
31387;DHT22;18017;50.124;8.688;2022-09-09T05:32:26;17.40;99.90
31387;DHT22;18017;50.124;8.688;2022-09-09T05:34:51;17.20;99.90
31387;DHT22;18017;50.124;8.688;2022-09-09T05:37:18;17.00;99.90
31387;DHT22;18017;50.124;8.688;2022-09-09T05:39:43;16.90;99.90
31387;DHT22;18017;50.124;8.688;2022-09-09T05:42:09;16.90;99.90
31387;DHT22;18017;50.124;8.688;2022-09-09T05:44:35;16.90;99.90
31387;DHT22;18017;50.124;8.688;2022-09-09T05:47:00;17.00;99.90
31387;DHT22;18017;50.124;8.688;2022-09-09T05:49:26;17.00;99.90
31387;DHT22;18017;50.124;8.688;2022-09-09T05:51:52;17.00;99.90
31387;DHT22;18017;50.124;8.688;2022-09-09T05:54:18;16.90;99.90
31387;DHT22;18017;50.124;8.688;2022-09-09T05:56:44;16.90;99.90
31387;DHT22;18017;50.124;8.688;2022-09-09T05:59:09;16.90;99.90
31387;DHT22;18017;50.124;8.688;2022-09-09T06:01:36;16.90;99.90
31387;DHT22;18017;50.124;8.688;2022-09-09T06:04:06;16.90;99.90
31387;DHT22;18017;50.124;8.688;2022-09-09T06:06:35;17.00;99.90
31387;DHT22;18017;50.124;8.688;2022-09-09T06:09:03;17.00;99.90
31387;DHT22;18017;50.124;8.688;2022-09-09T06:11:32;17.00;99.90
31387;DHT22;18017;50.124;8.688;2022-09-09T06:13:58;17.00;99.90
31387;DHT22;18017;50.124;8.688;2022-09-09T06:16:27;17.10;99.90
31387;DHT22;18017;50.124;8.688;2022-09-09T06:18:56;17.20;99.90
31387;DHT22;18017;50.124;8.688;2022-09-09T06:21:28;17.60;99.90
31387;DHT22;18017;50.124;8.688;2022-09-09T06:23:55;17.60;99.90
31387;DHT22;18017;50.124;8.688;2022-09-09T06:26:24;17.60;99.90
31387;DHT22;18017;50.124;8.688;2022-09-09T06:28:52;18.10;99.90
31387;DHT22;18017;50.124;8.688;2022-09-09T06:31:20;21.90;99.90
31387;DHT22;18017;50.124;8.688;2022-09-09T06:33:50;24.90;99.90
31387;DHT22;18017;50.124;8.688;2022-09-09T06:36:21;22.80;99.90
31387;DHT22;18017;50.124;8.688;2022-09-09T06:38:47;21.60;99.90
31387;DHT22;18017;50.124;8.688;2022-09-09T06:41:15;21.00;99.90
31387;DHT22;18017;50.124;8.688;2022-09-09T06:43:41;20.30;99.90
31387;DHT22;18017;50.124;8.688;2022-09-09T06:46:21;20.00;99.90
31387;DHT22;18017;50.124;8.688;2022-09-09T06:48:47;20.20;99.90
31387;DHT22;18017;50.124;8.688;2022-09-09T06:51:15;20.50;99.90
31387;DHT22;18017;50.124;8.688;2022-09-09T06:53:42;19.70;99.90
31387;DHT22;18017;50.124;8.688;2022-09-09T06:56:23;19.30;99.90
31387;DHT22;18017;50.124;8.688;2022-09-09T06:58:52;19.10;99.90
31387;DHT22;18017;50.124;8.688;2022-09-09T07:01:22;18.90;99.90
31387;DHT22;18017;50.124;8.688;2022-09-09T07:03:50;18.90;99.90
31387;DHT22;18017;50.124;8.688;2022-09-09T07:08:43;19.50;99.90
31387;DHT22;18017;50.124;8.688;2022-09-09T07:11:09;19.90;99.90
31387;DHT22;18017;50.124;8.688;2022-09-09T07:13:36;20.40;99.90
31387;DHT22;18017;50.124;8.688;2022-09-09T07:16:20;20.60;99.90
31387;DHT22;18017;50.124;8.688;2022-09-09T07:18:48;19.80;99.90
31387;DHT22;18017;50.124;8.688;2022-09-09T07:21:16;19.40;99.90
31387;DHT22;18017;50.124;8.688;2022-09-09T07:23:41;19.20;99.90
31387;DHT22;18017;50.124;8.688;2022-09-09T07:26:15;18.80;99.90
31387;DHT22;18017;50.124;8.688;2022-09-09T07:28:41;18.60;99.90
31387;DHT22;18017;50.124;8.688;2022-09-09T07:31:13;18.40;99.90
31387;DHT22;18017;50.124;8.688;2022-09-09T07:33:41;18.40;99.90
31387;DHT22;18017;50.124;8.688;2022-09-09T07:36:19;18.40;99.90
31387;DHT22;18017;50.124;8.688;2022-09-09T07:38:56;18.40;99.90
31387;DHT22;18017;50.124;8.688;2022-09-09T07:41:30;18.40;99.90
31387;DHT22;18017;50.124;8.688;2022-09-09T07:43:57;18.50;99.90
31387;DHT22;18017;50.124;8.688;2022-09-09T07:46:26;18.70;99.90
31387;DHT22;18017;50.124;8.688;2022-09-09T07:48:54;19.00;99.90
31387;DHT22;18017;50.124;8.688;2022-09-09T07:51:25;19.20;99.90
31387;DHT22;18017;50.124;8.688;2022-09-09T07:53:54;19.20;99.90
31387;DHT22;18017;50.124;8.688;2022-09-09T07:56:21;19.30;99.90
31387;DHT22;18017;50.124;8.688;2022-09-09T07:58:50;19.30;99.90
31387;DHT22;18017;50.124;8.688;2022-09-09T08:01:22;19.10;99.90
31387;DHT22;18017;50.124;8.688;2022-09-09T08:03:56;18.90;99.90
31387;DHT22;18017;50.124;8.688;2022-09-09T08:06:25;18.80;99.90
31387;DHT22;18017;50.124;8.688;2022-09-09T08:08:52;18.80;99.90
31387;DHT22;18017;50.124;8.688;2022-09-09T08:11:18;18.80;99.90
31387;DHT22;18017;50.124;8.688;2022-09-09T08:13:44;19.00;99.90
31387;DHT22;18017;50.124;8.688;2022-09-09T08:16:14;19.00;99.90
31387;DHT22;18017;50.124;8.688;2022-09-09T08:18:40;19.00;99.90
31387;DHT22;18017;50.124;8.688;2022-09-09T08:21:17;19.50;99.90
31387;DHT22;18017;50.124;8.688;2022-09-09T08:23:44;20.60;99.90
31387;DHT22;18017;50.124;8.688;2022-09-09T08:26:21;21.70;99.90
31387;DHT22;18017;50.124;8.688;2022-09-09T08:28:50;21.70;99.90
31387;DHT22;18017;50.124;8.688;2022-09-09T08:31:22;21.90;99.90
31387;DHT22;18017;50.124;8.688;2022-09-09T08:33:48;21.80;99.90
31387;DHT22;18017;50.124;8.688;2022-09-09T08:36:19;22.00;99.90
31387;DHT22;18017;50.124;8.688;2022-09-09T08:38:52;22.30;99.90
31387;DHT22;18017;50.124;8.688;2022-09-09T08:51:59;24.60;99.90
31387;DHT22;18017;50.124;8.688;2022-09-09T08:54:28;22.50;99.90
31387;DHT22;18017;50.124;8.688;2022-09-09T08:56:57;21.40;99.90
31387;DHT22;18017;50.124;8.688;2022-09-09T08:59:23;20.90;99.90
31387;DHT22;18017;50.124;8.688;2022-09-09T09:10:39;20.50;99.90
31387;DHT22;18017;50.124;8.688;2022-09-09T09:15:55;21.30;99.90
31387;DHT22;18017;50.124;8.688;2022-09-09T09:18:23;21.20;99.90
31387;DHT22;18017;50.124;8.688;2022-09-09T09:21:04;20.90;99.90
31387;DHT22;18017;50.124;8.688;2022-09-09T09:23:59;20.90;99.90
31387;DHT22;18017;50.124;8.688;2022-09-09T09:26:31;21.20;99.90
31387;DHT22;18017;50.124;8.688;2022-09-09T09:28:59;21.30;99.90
31387;DHT22;18017;50.124;8.688;2022-09-09T09:31:26;21.10;99.90
31387;DHT22;18017;50.124;8.688;2022-09-09T09:33:55;20.70;99.90
31387;DHT22;18017;50.124;8.688;2022-09-09T09:36:34;20.40;99.90
31387;DHT22;18017;50.124;8.688;2022-09-09T09:39:01;20.60;99.90
31387;DHT22;18017;50.124;8.688;2022-09-09T09:41:43;21.00;99.90
31387;DHT22;18017;50.124;8.688;2022-09-09T09:44:27;20.80;99.90
31387;DHT22;18017;50.124;8.688;2022-09-09T09:47:05;20.50;99.90
31387;DHT22;18017;50.124;8.688;2022-09-09T09:49:30;20.20;99.90
31387;DHT22;18017;50.124;8.688;2022-09-09T09:52:01;20.20;99.90
31387;DHT22;18017;50.124;8.688;2022-09-09T09:54:33;20.10;99.90
31387;DHT22;18017;50.124;8.688;2022-09-09T09:57:11;19.80;99.90
31387;DHT22;18017;50.124;8.688;2022-09-09T09:59:38;19.60;99.90
31387;DHT22;18017;50.124;8.688;2022-09-09T10:02:19;19.60;99.90
31387;DHT22;18017;50.124;8.688;2022-09-09T10:04:46;19.80;99.90
31387;DHT22;18017;50.124;8.688;2022-09-09T10:07:13;22.20;99.90
31387;DHT22;18017;50.124;8.688;2022-09-09T10:09:42;22.70;99.90
31387;DHT22;18017;50.124;8.688;2022-09-09T10:26:44;38.70;94.60
31387;DHT22;18017;50.124;8.688;2022-09-09T10:32:25;38.10;90.90
31387;DHT22;18017;50.124;8.688;2022-09-09T10:40:26;27.80;99.20
31387;DHT22;18017;50.124;8.688;2022-09-09T10:43:01;29.80;97.60
31387;DHT22;18017;50.124;8.688;2022-09-09T10:45:48;28.30;98.10
31387;DHT22;18017;50.124;8.688;2022-09-09T10:50:56;24.50;99.90
31387;DHT22;18017;50.124;8.688;2022-09-09T10:56:25;22.90;99.90
31387;DHT22;18017;50.124;8.688;2022-09-09T10:59:22;22.20;99.90
31387;DHT22;18017;50.124;8.688;2022-09-09T11:04:30;21.80;99.90
31387;DHT22;18017;50.124;8.688;2022-09-09T11:07:00;21.90;99.90
31387;DHT22;18017;50.124;8.688;2022-09-09T11:09:33;23.20;99.90
31387;DHT22;18017;50.124;8.688;2022-09-09T11:12:02;24.10;99.90
31387;DHT22;18017;50.124;8.688;2022-09-09T11:14:36;28.50;99.90
31387;DHT22;18017;50.124;8.688;2022-09-09T11:17:16;33.30;99.90
31387;DHT22;18017;50.124;8.688;2022-09-09T11:19:44;32.40;99.90
31387;DHT22;18017;50.124;8.688;2022-09-09T11:22:33;31.10;99.20
31387;DHT22;18017;50.124;8.688;2022-09-09T11:28:21;29.20;99.90
31387;DHT22;18017;50.124;8.688;2022-09-09T11:33:33;33.30;95.10
31387;DHT22;18017;50.124;8.688;2022-09-09T11:38:52;28.70;98.20
31387;DHT22;18017;50.124;8.688;2022-09-09T11:41:19;27.20;97.00
31387;DHT22;18017;50.124;8.688;2022-09-09T11:43:48;27.80;97.90
31387;DHT22;18017;50.124;8.688;2022-09-09T11:46:21;32.80;95.50
31387;DHT22;18017;50.124;8.688;2022-09-09T11:49:21;29.90;94.60
31387;DHT22;18017;50.124;8.688;2022-09-09T11:51:50;29.00;96.10
31387;DHT22;18017;50.124;8.688;2022-09-09T11:54:31;32.30;93.30
31387;DHT22;18017;50.124;8.688;2022-09-09T11:56:57;29.50;94.60
31387;DHT22;18017;50.124;8.688;2022-09-09T11:59:26;27.60;94.70
31387;DHT22;18017;50.124;8.688;2022-09-09T12:02:12;25.90;96.30
31387;DHT22;18017;50.124;8.688;2022-09-09T12:04:59;24.80;97.70
31387;DHT22;18017;50.124;8.688;2022-09-09T12:07:33;23.90;97.90
31387;DHT22;18017;50.124;8.688;2022-09-09T12:10:19;23.20;99.90
31387;DHT22;18017;50.124;8.688;2022-09-09T12:12:46;23.20;99.90
31387;DHT22;18017;50.124;8.688;2022-09-09T12:31:05;26.90;97.60
31387;DHT22;18017;50.124;8.688;2022-09-09T12:33:38;26.10;97.30
31387;DHT22;18017;50.124;8.688;2022-09-09T12:36:11;25.30;97.70
31387;DHT22;18017;50.124;8.688;2022-09-09T12:38:40;24.60;99.30
31387;DHT22;18017;50.124;8.688;2022-09-09T12:41:25;24.20;99.20
31387;DHT22;18017;50.124;8.688;2022-09-09T12:43:51;23.80;99.80
31387;DHT22;18017;50.124;8.688;2022-09-09T12:46:42;23.50;99.90
31387;DHT22;18017;50.124;8.688;2022-09-09T12:51:53;22.50;99.90
31387;DHT22;18017;50.124;8.688;2022-09-09T12:54:19;20.70;99.90
31387;DHT22;18017;50.124;8.688;2022-09-09T12:56:47;18.50;99.90
31387;DHT22;18017;50.124;8.688;2022-09-09T12:59:34;17.90;99.90
31387;DHT22;18017;50.124;8.688;2022-09-09T13:02:00;17.90;99.90
31387;DHT22;18017;50.124;8.688;2022-09-09T13:04:26;18.10;99.90
31387;DHT22;18017;50.124;8.688;2022-09-09T13:06:52;18.40;99.90
31387;DHT22;18017;50.124;8.688;2022-09-09T13:09:18;18.40;99.90
31387;DHT22;18017;50.124;8.688;2022-09-09T13:11:51;19.00;99.90
31387;DHT22;18017;50.124;8.688;2022-09-09T13:14:25;19.40;99.90
31387;DHT22;18017;50.124;8.688;2022-09-09T13:16:57;19.60;99.90
31387;DHT22;18017;50.124;8.688;2022-09-09T13:19:24;20.00;99.90
31387;DHT22;18017;50.124;8.688;2022-09-09T13:21:54;20.40;99.90
31387;DHT22;18017;50.124;8.688;2022-09-09T13:24:32;20.20;99.90
31387;DHT22;18017;50.124;8.688;2022-09-09T13:27:00;19.90;99.90
31387;DHT22;18017;50.124;8.688;2022-09-09T13:29:28;20.00;99.90
31387;DHT22;18017;50.124;8.688;2022-09-09T13:31:54;20.30;99.90
31387;DHT22;18017;50.124;8.688;2022-09-09T13:34:34;21.10;99.90
31387;DHT22;18017;50.124;8.688;2022-09-09T13:37:03;22.00;99.90
31387;DHT22;18017;50.124;8.688;2022-09-09T13:39:36;23.10;99.90
31387;DHT22;18017;50.124;8.688;2022-09-09T13:42:03;23.90;99.90
31387;DHT22;18017;50.124;8.688;2022-09-09T13:44:34;24.90;99.90
31387;DHT22;18017;50.124;8.688;2022-09-09T13:49:34;26.40;99.90
31387;DHT22;18017;50.124;8.688;2022-09-09T13:52:10;26.20;99.90
31387;DHT22;18017;50.124;8.688;2022-09-09T13:54:37;27.00;99.90
31387;DHT22;18017;50.124;8.688;2022-09-09T13:57:03;27.60;99.90
31387;DHT22;18017;50.124;8.688;2022-09-09T13:59:30;27.30;99.90
31387;DHT22;18017;50.124;8.688;2022-09-09T14:01:57;27.00;99.90
31387;DHT22;18017;50.124;8.688;2022-09-09T14:04:22;26.50;99.90
31387;DHT22;18017;50.124;8.688;2022-09-09T14:06:49;26.40;99.90
31387;DHT22;18017;50.124;8.688;2022-09-09T14:09:16;25.70;99.90
31387;DHT22;18017;50.124;8.688;2022-09-09T14:11:43;25.30;99.90
31387;DHT22;18017;50.124;8.688;2022-09-09T14:14:09;24.40;99.90
31387;DHT22;18017;50.124;8.688;2022-09-09T14:16:34;23.70;99.90
31387;DHT22;18017;50.124;8.688;2022-09-09T14:19:00;22.90;99.90
31387;DHT22;18017;50.124;8.688;2022-09-09T14:21:27;22.50;99.90
31387;DHT22;18017;50.124;8.688;2022-09-09T14:23:53;22.20;99.90
31387;DHT22;18017;50.124;8.688;2022-09-09T14:26:22;21.90;99.90
31387;DHT22;18017;50.124;8.688;2022-09-09T14:28:49;21.80;99.90
31387;DHT22;18017;50.124;8.688;2022-09-09T14:31:15;21.50;99.90
31387;DHT22;18017;50.124;8.688;2022-09-09T14:33:43;21.40;99.90
31387;DHT22;18017;50.124;8.688;2022-09-09T14:36:09;21.20;99.90
31387;DHT22;18017;50.124;8.688;2022-09-09T14:38:36;21.30;99.90
31387;DHT22;18017;50.124;8.688;2022-09-09T14:41:13;21.60;99.90
31387;DHT22;18017;50.124;8.688;2022-09-09T14:43:42;21.70;99.90
31387;DHT22;18017;50.124;8.688;2022-09-09T14:46:09;21.70;99.90
31387;DHT22;18017;50.124;8.688;2022-09-09T14:48:35;21.70;99.90
31387;DHT22;18017;50.124;8.688;2022-09-09T14:51:07;21.60;99.90
31387;DHT22;18017;50.124;8.688;2022-09-09T14:53:32;21.80;99.90
31387;DHT22;18017;50.124;8.688;2022-09-09T14:56:10;21.90;99.90
31387;DHT22;18017;50.124;8.688;2022-09-09T14:58:36;21.70;99.90
31387;DHT22;18017;50.124;8.688;2022-09-09T15:01:08;21.50;99.90
31387;DHT22;18017;50.124;8.688;2022-09-09T15:03:36;21.70;99.90
31387;DHT22;18017;50.124;8.688;2022-09-09T15:06:10;21.80;99.90
31387;DHT22;18017;50.124;8.688;2022-09-09T15:08:36;21.80;99.90
31387;DHT22;18017;50.124;8.688;2022-09-09T15:11:03;21.80;99.90
31387;DHT22;18017;50.124;8.688;2022-09-09T15:13:30;21.60;99.90
31387;DHT22;18017;50.124;8.688;2022-09-09T15:15:55;21.50;99.90
31387;DHT22;18017;50.124;8.688;2022-09-09T15:18:23;21.40;99.90
31387;DHT22;18017;50.124;8.688;2022-09-09T15:20:49;21.50;99.90
31387;DHT22;18017;50.124;8.688;2022-09-09T15:23:14;21.50;99.90
31387;DHT22;18017;50.124;8.688;2022-09-09T15:25:55;21.40;99.90
31387;DHT22;18017;50.124;8.688;2022-09-09T15:28:22;21.20;99.90
31387;DHT22;18017;50.124;8.688;2022-09-09T15:30:49;21.30;99.90
31387;DHT22;18017;50.124;8.688;2022-09-09T15:33:15;21.40;99.90
31387;DHT22;18017;50.124;8.688;2022-09-09T15:35:41;21.40;99.90
31387;DHT22;18017;50.124;8.688;2022-09-09T15:38:06;21.80;99.90
31387;DHT22;18017;50.124;8.688;2022-09-09T15:40:32;21.90;99.90
31387;DHT22;18017;50.124;8.688;2022-09-09T15:42:58;21.90;99.90
31387;DHT22;18017;50.124;8.688;2022-09-09T15:45:24;21.80;99.90
31387;DHT22;18017;50.124;8.688;2022-09-09T15:47:50;21.70;99.90
31387;DHT22;18017;50.124;8.688;2022-09-09T15:50:15;21.70;99.90
31387;DHT22;18017;50.124;8.688;2022-09-09T15:52:41;21.70;99.90
31387;DHT22;18017;50.124;8.688;2022-09-09T15:55:07;21.50;99.90
31387;DHT22;18017;50.124;8.688;2022-09-09T15:57:34;21.40;99.90
31387;DHT22;18017;50.124;8.688;2022-09-09T16:00:00;21.30;99.90
31387;DHT22;18017;50.124;8.688;2022-09-09T16:02:26;21.10;99.90
31387;DHT22;18017;50.124;8.688;2022-09-09T16:04:52;21.00;99.90
31387;DHT22;18017;50.124;8.688;2022-09-09T16:07:17;20.80;99.90
31387;DHT22;18017;50.124;8.688;2022-09-09T16:09:43;20.50;99.90
31387;DHT22;18017;50.124;8.688;2022-09-09T16:12:09;20.30;99.90
31387;DHT22;18017;50.124;8.688;2022-09-09T16:14:37;20.30;99.90
31387;DHT22;18017;50.124;8.688;2022-09-09T16:17:05;20.30;99.90
31387;DHT22;18017;50.124;8.688;2022-09-09T16:19:32;20.30;99.90
31387;DHT22;18017;50.124;8.688;2022-09-09T16:21:58;20.20;99.90
31387;DHT22;18017;50.124;8.688;2022-09-09T16:24:23;20.20;99.90
31387;DHT22;18017;50.124;8.688;2022-09-09T16:26:51;20.00;99.90
31387;DHT22;18017;50.124;8.688;2022-09-09T16:29:18;20.00;99.90
31387;DHT22;18017;50.124;8.688;2022-09-09T16:31:48;19.90;99.90
31387;DHT22;18017;50.124;8.688;2022-09-09T16:34:15;19.80;99.90
31387;DHT22;18017;50.124;8.688;2022-09-09T16:36:41;19.80;99.90
31387;DHT22;18017;50.124;8.688;2022-09-09T16:39:16;19.70;99.90
31387;DHT22;18017;50.124;8.688;2022-09-09T16:41:43;19.80;99.90
31387;DHT22;18017;50.124;8.688;2022-09-09T16:44:10;19.70;99.90
31387;DHT22;18017;50.124;8.688;2022-09-09T16:46:40;19.70;99.90
31387;DHT22;18017;50.124;8.688;2022-09-09T16:49:09;19.60;99.90
31387;DHT22;18017;50.124;8.688;2022-09-09T16:51:40;19.60;99.90
31387;DHT22;18017;50.124;8.688;2022-09-09T16:54:07;19.50;99.90
31387;DHT22;18017;50.124;8.688;2022-09-09T16:56:35;19.50;99.90
31387;DHT22;18017;50.124;8.688;2022-09-09T16:59:09;19.50;99.90
31387;DHT22;18017;50.124;8.688;2022-09-09T17:01:37;19.50;99.90
31387;DHT22;18017;50.124;8.688;2022-09-09T17:04:05;19.40;99.90
31387;DHT22;18017;50.124;8.688;2022-09-09T17:06:32;19.30;99.90
31387;DHT22;18017;50.124;8.688;2022-09-09T17:09:02;19.20;99.90
31387;DHT22;18017;50.124;8.688;2022-09-09T17:11:28;19.10;99.90
31387;DHT22;18017;50.124;8.688;2022-09-09T17:13:55;19.10;99.90
31387;DHT22;18017;50.124;8.688;2022-09-09T17:16:23;19.00;99.90
31387;DHT22;18017;50.124;8.688;2022-09-09T17:18:50;19.00;99.90
31387;DHT22;18017;50.124;8.688;2022-09-09T17:21:19;19.10;99.90
31387;DHT22;18017;50.124;8.688;2022-09-09T17:23:46;19.00;99.90
31387;DHT22;18017;50.124;8.688;2022-09-09T17:26:15;19.00;99.90
31387;DHT22;18017;50.124;8.688;2022-09-09T17:28:41;19.00;99.90
31387;DHT22;18017;50.124;8.688;2022-09-09T17:31:10;18.90;99.90
31387;DHT22;18017;50.124;8.688;2022-09-09T17:33:38;18.90;99.90
31387;DHT22;18017;50.124;8.688;2022-09-09T17:36:11;18.90;99.90
31387;DHT22;18017;50.124;8.688;2022-09-09T17:38:38;18.80;99.90
31387;DHT22;18017;50.124;8.688;2022-09-09T17:41:24;18.80;99.90
31387;DHT22;18017;50.124;8.688;2022-09-09T17:43:50;18.70;99.90
31387;DHT22;18017;50.124;8.688;2022-09-09T17:46:21;18.70;99.90
31387;DHT22;18017;50.124;8.688;2022-09-09T17:48:49;18.70;99.90
31387;DHT22;18017;50.124;8.688;2022-09-09T17:51:18;18.60;99.90
31387;DHT22;18017;50.124;8.688;2022-09-09T17:53:51;18.60;99.90